TimeEDT,TemperatureF,Dew PointF,Humidity,Sea Level PressureIn,VisibilityMPH,Wind Direction,Wind SpeedMPH,Gust SpeedMPH,PrecipitationIn,Events,Conditions,WindDirDegrees,DateUTC
12:53 AM,48.9,46.0,90,30.18,10.0,Calm,Calm,-,N/A,,Overcast,0,2012-10-09 04:53:00
1:53 AM,48.9,46.0,90,30.18,10.0,Calm,Calm,-,N/A,,Overcast,0,2012-10-09 05:53:00
2:53 AM,48.9,46.0,90,30.17,10.0,Calm,Calm,-,N/A,,Overcast,0,2012-10-09 06:53:00
3:53 AM,48.9,46.0,90,30.17,10.0,Calm,Calm,-,N/A,,Overcast,0,2012-10-09 07:53:00
4:28 AM,48.2,44.6,87,30.16,10.0,Calm,Calm,-,N/A,,Overcast,0,2012-10-09 08:28:00
4:45 AM,48.2,44.6,87,30.16,10.0,Calm,Calm,-,N/A,,Overcast,0,2012-10-09 08:45:00
4:53 AM,48.9,45.0,86,30.17,10.0,Calm,Calm,-,N/A,,Overcast,0,2012-10-09 08:53:00
5:21 AM,48.2,44.6,87,30.16,10.0,Calm,Calm,-,N/A,,Overcast,0,2012-10-09 09:21:00
5:53 AM,48.9,45.0,86,30.17,10.0,Calm,Calm,-,N/A,,Overcast,0,2012-10-09 09:53:00
6:53 AM,48.9,46.0,90,30.19,10.0,Calm,Calm,-,N/A,,Overcast,0,2012-10-09 10:53:00
7:16 AM,48.2,44.6,87,30.18,10.0,Calm,Calm,-,N/A,,Overcast,0,2012-10-09 11:16:00
7:49 AM,48.2,44.6,87,30.18,10.0,Calm,Calm,-,N/A,,Overcast,0,2012-10-09 11:49:00
7:53 AM,50.0,45.0,83,30.19,10.0,Calm,Calm,-,N/A,,Overcast,0,2012-10-09 11:53:00
8:46 AM,50.0,44.6,82,30.19,10.0,Calm,Calm,-,N/A,,Overcast,0,2012-10-09 12:46:00
8:53 AM,50.0,46.0,86,30.20,10.0,Calm,Calm,-,N/A,,Overcast,0,2012-10-09 12:53:00
9:19 AM,50.0,44.6,82,30.19,10.0,Calm,Calm,-,N/A,,Overcast,0,2012-10-09 13:19:00
9:31 AM,51.8,44.6,76,30.19,10.0,ENE,3.5,-,N/A,,Overcast,70,2012-10-09 13:31:00
9:38 AM,51.8,44.6,76,30.19,10.0,Calm,Calm,-,N/A,,Overcast,0,2012-10-09 13:38:00
9:53 AM,51.1,46.0,83,30.20,10.0,Calm,Calm,-,N/A,,Overcast,0,2012-10-09 13:53:00
10:53 AM,53.1,46.0,77,30.19,10.0,Calm,Calm,-,N/A,,Overcast,0,2012-10-09 14:53:00
11:53 AM,54.0,46.0,75,30.18,10.0,Calm,Calm,-,N/A,,Overcast,0,2012-10-09 15:53:00
12:53 PM,55.0,45.0,69,30.18,10.0,Calm,Calm,-,N/A,,Overcast,0,2012-10-09 16:53:00
1:23 PM,55.4,44.6,67,30.15,10.0,Calm,Calm,-,N/A,,Overcast,0,2012-10-09 17:23:00
1:36 PM,55.4,44.6,67,30.15,10.0,Variable,3.5,-,N/A,,Overcast,0,2012-10-09 17:36:00
1:53 PM,57.0,45.0,64,30.15,10.0,Calm,Calm,-,N/A,,Overcast,0,2012-10-09 17:53:00
2:06 PM,57.2,44.6,63,30.14,10.0,Variable,3.5,-,N/A,,Overcast,0,2012-10-09 18:06:00
2:49 PM,57.2,44.6,63,30.14,10.0,West,4.6,-,N/A,,Overcast,260,2012-10-09 18:49:00
2:53 PM,57.0,45.0,64,30.14,10.0,Calm,Calm,-,N/A,,Overcast,0,2012-10-09 18:53:00
3:17 PM,57.2,44.6,63,30.13,10.0,Calm,Calm,-,N/A,,Overcast,0,2012-10-09 19:17:00
3:53 PM,57.0,44.1,62,30.12,10.0,Calm,Calm,-,N/A,,Overcast,0,2012-10-09 19:53:00
4:53 PM,57.9,44.1,60,30.10,10.0,Variable,3.5,-,N/A,,Overcast,0,2012-10-09 20:53:00
5:53 PM,57.9,45.0,62,30.10,10.0,Calm,Calm,-,N/A,,Overcast,0,2012-10-09 21:53:00
6:53 PM,55.9,44.1,64,30.09,10.0,Calm,Calm,-,N/A,,Mostly Cloudy,0,2012-10-09 22:53:00
7:53 PM,51.1,46.0,83,30.09,10.0,Calm,Calm,-,N/A,,Clear,0,2012-10-09 23:53:00
8:53 PM,48.0,45.0,89,30.11,10.0,Calm,Calm,-,N/A,,Clear,0,2012-10-10 00:53:00
9:53 PM,46.9,44.1,90,30.12,10.0,Calm,Calm,-,N/A,,Clear,0,2012-10-10 01:53:00
10:53 PM,45.0,42.1,90,30.12,10.0,Calm,Calm,-,N/A,,Clear,0,2012-10-10 02:53:00
11:53 PM,45.0,42.1,90,30.11,10.0,Calm,Calm,-,N/A,,Clear,0,2012-10-10 03:53:00